sensor_id;sensor_type;location;lat;lon;timestamp;pressure;altitude;pressure_sealevel;temperature;humidity
74431;BME280;62863;52.062;23.764;2022-08-14T07:58:59;1021.7;;;31.1;55
74431;BME280;62863;52.062;23.764;2022-08-14T08:04:13;1021.7;;;30.5;53.6
74431;BME280;62863;52.062;23.764;2022-08-14T08:09:24;1021.7;;;30;54.3
74431;BME280;62863;52.062;23.764;2022-08-14T17:24:19;1021.7;;;30;54.3
74431;BME280;62863;52.062;23.764;2022-08-14T17:28:39;1019.2;;;25.1;60.1
74431;BME280;62863;52.062;23.764;2022-08-14T17:33:51;1019.2;;;24.9;63
74431;BME280;62863;52.062;23.764;2022-08-14T17:38:56;1019.2;;;24.7;64.1
74431;BME280;62863;52.062;23.764;2022-08-14T17:44:15;1019.3;;;24.5;64.9
74431;BME280;62863;52.062;23.764;2022-08-14T17:48:39;1019.3;;;24.3;66
74431;BME280;62863;52.062;23.764;2022-08-14T17:54:11;1019.3;;;24.2;66.5
74431;BME280;62863;52.062;23.764;2022-08-14T17:59:09;1019.3;;;24.1;67
74431;BME280;62863;52.062;23.764;2022-08-14T18:04:09;1019.3;;;24;67.6
74431;BME280;62863;52.062;23.764;2022-08-14T18:09:10;1019.4;;;23.9;68.2
74431;BME280;62863;52.062;23.764;2022-08-14T18:14:20;1019.4;;;23.7;69.1
74431;BME280;62863;52.062;23.764;2022-08-14T18:18:53;1019.4;;;23.6;69.6
74431;BME280;62863;52.062;23.764;2022-08-14T18:23:49;1019.4;;;23.6;69.8
74431;BME280;62863;52.062;23.764;2022-08-14T18:28:49;1019.5;;;23.5;71
74431;BME280;62863;52.062;23.764;2022-08-14T18:34:23;1019.5;;;23.5;71.3
74431;BME280;62863;52.062;23.764;2022-08-14T18:39:30;1019.6;;;23.4;71.3
74431;BME280;62863;52.062;23.764;2022-08-14T18:43:59;1019.6;;;23.4;70.9
74431;BME280;62863;52.062;23.764;2022-08-14T18:49:19;1019.6;;;23.3;71
74431;BME280;62863;52.062;23.764;2022-08-14T18:54:25;1019.6;;;23.2;71.3
74431;BME280;62863;52.062;23.764;2022-08-14T18:58:59;1019.6;;;23.2;71.1
74431;BME280;62863;52.062;23.764;2022-08-14T19:03:59;1019.6;;;23.1;71.4
74431;BME280;62863;52.062;23.764;2022-08-14T19:08:48;1019.6;;;23;71.7
74431;BME280;62863;52.062;23.764;2022-08-14T19:13:39;1019.6;;;22.9;71.5
74431;BME280;62863;52.062;23.764;2022-08-14T19:19:11;1019.6;;;22.9;71.9
74431;BME280;62863;52.062;23.764;2022-08-14T19:24:05;1019.6;;;22.8;72.2
74431;BME280;62863;52.062;23.764;2022-08-14T19:29:28;1019.6;;;22.7;73.1
74431;BME280;62863;52.062;23.764;2022-08-14T19:34:09;1019.6;;;22.6;73.4
74431;BME280;62863;52.062;23.764;2022-08-14T19:38:51;1019.6;;;22.5;73.5
74431;BME280;62863;52.062;23.764;2022-08-14T19:44:16;1019.7;;;22.4;73.6
74431;BME280;62863;52.062;23.764;2022-08-14T19:49:30;1019.6;;;22.3;73.9
74431;BME280;62863;52.062;23.764;2022-08-14T19:54:28;1019.7;;;22.3;74.1
74431;BME280;62863;52.062;23.764;2022-08-14T19:58:40;1019.7;;;22.3;73.9
74431;BME280;62863;52.062;23.764;2022-08-14T20:03:51;1019.7;;;22.3;73.7
74431;BME280;62863;52.062;23.764;2022-08-14T20:08:39;1019.6;;;22.3;73.4
74431;BME280;62863;52.062;23.764;2022-08-14T20:14:13;1019.5;;;22.3;73.5
74431;BME280;62863;52.062;23.764;2022-08-14T20:18:47;1019.5;;;22.3;73.7
74431;BME280;62863;52.062;23.764;2022-08-14T20:24:12;1019.5;;;22.2;73.6
74431;BME280;62863;52.062;23.764;2022-08-14T20:29:25;1019.5;;;22.2;73.6
74431;BME280;62863;52.062;23.764;2022-08-14T20:34:10;1019.6;;;22.2;74.5
74431;BME280;62863;52.062;23.764;2022-08-14T20:38:59;1019.6;;;22.1;74.6
74431;BME280;62863;52.062;23.764;2022-08-14T20:44:21;1019.6;;;22.1;74.7
74431;BME280;62863;52.062;23.764;2022-08-14T20:49:13;1019.7;;;22;74.8
74431;BME280;62863;52.062;23.764;2022-08-14T20:53:58;1019.7;;;22;74.6
74431;BME280;62863;52.062;23.764;2022-08-14T20:58:39;1019.6;;;22;74.2
74431;BME280;62863;52.062;23.764;2022-08-14T21:04:28;1019.6;;;22;73.9
74431;BME280;62863;52.062;23.764;2022-08-14T21:09:25;1019.6;;;22;73.4
74431;BME280;62863;52.062;23.764;2022-08-14T21:14:25;1019.6;;;22.1;73.1
74431;BME280;62863;52.062;23.764;2022-08-14T21:18:57;1019.6;;;22.1;73
74431;BME280;62863;52.062;23.764;2022-08-14T21:24:12;1019.7;;;22.1;72.9
74431;BME280;62863;52.062;23.764;2022-08-14T21:29:20;1019.7;;;22;73.1
74431;BME280;62863;52.062;23.764;2022-08-14T21:33:59;1019.7;;;22;73.3
74431;BME280;62863;52.062;23.764;2022-08-14T21:38:47;1019.7;;;21.9;73.2
74431;BME280;62863;52.062;23.764;2022-08-14T21:43:39;1019.7;;;21.9;73.4
74431;BME280;62863;52.062;23.764;2022-08-14T21:48:39;1019.7;;;21.7;73.9
74431;BME280;62863;52.062;23.764;2022-08-14T21:53:49;1019.6;;;21.5;74.6
74431;BME280;62863;52.062;23.764;2022-08-14T21:58:59;1019.6;;;21.3;75
74431;BME280;62863;52.062;23.764;2022-08-14T22:04:19;1019.6;;;21.2;75.5
74431;BME280;62863;52.062;23.764;2022-08-14T22:09:13;1019.6;;;21.2;76.1
74431;BME280;62863;52.062;23.764;2022-08-14T22:13:57;1019.6;;;21.1;76.5
74431;BME280;62863;52.062;23.764;2022-08-14T22:19:21;1019.5;;;21;76.8
74431;BME280;62863;52.062;23.764;2022-08-14T22:24:21;1019.6;;;20.8;76.6
74431;BME280;62863;52.062;23.764;2022-08-14T22:29:21;1019.6;;;20.8;77
74431;BME280;62863;52.062;23.764;2022-08-14T22:34:02;1019.6;;;20.8;77
74431;BME280;62863;52.062;23.764;2022-08-14T22:38:52;1019.6;;;20.7;77
74431;BME280;62863;52.062;23.764;2022-08-14T22:44:21;1019.7;;;20.6;77.2
74431;BME280;62863;52.062;23.764;2022-08-14T22:49:04;1019.7;;;20.5;77.5
74431;BME280;62863;52.062;23.764;2022-08-14T22:53:52;1019.7;;;20.4;77.8
74431;BME280;62863;52.062;23.764;2022-08-14T22:59:11;1019.7;;;20.4;78
74431;BME280;62863;52.062;23.764;2022-08-14T23:04:08;1019.7;;;20.3;78.8
74431;BME280;62863;52.062;23.764;2022-08-14T23:08:57;1019.7;;;20.3;79.1
74431;BME280;62863;52.062;23.764;2022-08-14T23:13:58;1019.8;;;20.3;79.2
74431;BME280;62863;52.062;23.764;2022-08-14T23:19:16;1019.7;;;20.3;79.1
74431;BME280;62863;52.062;23.764;2022-08-14T23:23:48;1019.7;;;20.3;79
74431;BME280;62863;52.062;23.764;2022-08-14T23:28:39;1019.7;;;20.2;79.2
74431;BME280;62863;52.062;23.764;2022-08-14T23:34:19;1019.7;;;20.2;79.1
74431;BME280;62863;52.062;23.764;2022-08-14T23:39:17;1019.6;;;20.2;78.7
74431;BME280;62863;52.062;23.764;2022-08-14T23:44:18;1019.6;;;20.2;78.6
74431;BME280;62863;52.062;23.764;2022-08-14T23:48:39;1019.6;;;20.1;78.8
74431;BME280;62863;52.062;23.764;2022-08-14T23:54:13;1019.5;;;20;79.2
74431;BME280;62863;52.062;23.764;2022-08-14T23:59:15;1019.5;;;20;79.2
